Hatsu Envoy — VSQL9 — position and weather

sailwx.info

Track history (hours):
 
Tides and Currents Weather Stations Pressure Air Temp Water Temp Dewpoint Dewpoint Depression Visibility Wind Speed Wind Dir Waves Ship Positions

Hatsu Envoy

Last reported at 2017-Aug-12 11:37 UTC. Time now 2017-Aug-16 19:38 UTC.
Position N 38°35' W 128°42'.

Type: Ship (hazmat cat D). MMSI: 235414000.

Date/timePositionNaut miles runAvg speedWind from/ knotsBaromVisibWave heightAir tempDewpointWater temp
2017-Aug-12 11:37N 38°35' W 128°42'1113.8
2017-Aug-12 10:48N 38°29' W 128°30'513.7
2017-Aug-12 10:25N 38°26' W 128°24'613.9
2017-Aug-12 09:58N 38°22' W 128°18'1113.6
2017-Aug-12 09:11N 38°16' W 128°06'313.7
2017-Aug-12 08:59N 38°15' W 128°04'1413.4
2017-Aug-12 07:55N 38°10' W 127°46'1614.0
2017-Aug-12 06:46N 38°10' W 127°26'414.1
2017-Aug-12 06:30N 38°10' W 127°21'814.1
2017-Aug-12 05:54N 38°10' W 127°10'514.1
2017-Aug-12 05:30N 38°10' W 127°03'914.1
2017-Aug-12 04:54N 38°10' W 126°52'713.9
2017-Aug-12 04:26N 38°10' W 126°44'614.2
2017-Aug-12 04:00N 38°10' W 126°36'914.2
2017-Aug-12 03:22N 38°10' W 126°25'514.0
2017-Aug-12 03:00N 38°10' W 126°18'714.2
2017-Aug-12 02:30N 38°10' W 126°09'714.1
2017-Aug-12 02:00N 38°10' W 126°00'714.4
2017-Aug-12 01:30N 38°10' W 125°51'714.3
2017-Aug-12 01:00N 38°10' W 125°42'714.2
2017-Aug-12 00:30N 38°10' W 125°33'814.5
2017-Aug-11 23:59N 38°10' W 125°23'714.3
2017-Aug-11 23:30N 38°10' W 125°15'714.4
2017-Aug-11 23:00N 38°10' W 125°06'714.3
2017-Aug-11 22:30N 38°10' W 124°57'714.3
2017-Aug-11 22:00N 38°10' W 124°48'714.1
2017-Aug-11 21:30N 38°10' W 124°39'1013.9
2017-Aug-11 20:47N 38°10' W 124°26'413.7
2017-Aug-11 20:27N 38°10' W 124°20'613.6
2017-Aug-11 20:00N 38°10' W 124°12'1014.0
2017-Aug-11 19:19N 38°10' W 124°00'514.3
2017-Aug-11 18:58N 38°10' W 123°54'814.0
2017-Aug-11 18:24N 38°10' W 123°44'614.1
2017-Aug-11 18:00N 38°10' W 123°36'714.1
2017-Aug-11 17:30N 38°10' W 123°27'510.9
2017-Aug-11 17:00N 38°09' W 123°21'5 9.6
2017-Aug-11 16:30N 38°05' W 123°17'5 9.6
2017-Aug-11 16:00N 38°02' W 123°13'5 9.3
2017-Aug-11 15:30N 37°59' W 123°08'5 9.5
2017-Aug-11 15:00N 37°56' W 123°03'10 9.5
2017-Aug-11 14:00N 37°51' W 122°53'5 9.5
2017-Aug-11 13:30N 37°49' W 122°48'5 9.7
2017-Aug-11 13:00N 37°46' W 122°42'5 9.4
2017-Aug-11 12:30N 37°46' W 122°36'815.1
2017-Aug-11 12:00N 37°50' W 122°28'611.0
2017-Aug-11 11:30N 37°48' W 122°21'1 1.6
2017-Aug-11 11:00N 37°49' W 122°20'0 0.0
2017-Aug-11 10:29N 37°49' W 122°20'0 0.0
2017-Aug-11 09:59N 37°49' W 122°20'0 0.0
2017-Aug-11 09:29N 37°49' W 122°20'0 0.0
2017-Aug-11 09:01N 37°49' W 122°20'0 0.0
2017-Aug-11 08:31N 37°49' W 122°20'0 0.0
2017-Aug-11 08:00N 37°49' W 122°20'0 0.0
2017-Aug-11 07:31N 37°49' W 122°20'0 0.0
2017-Aug-11 07:01N 37°49' W 122°20'0 0.0
2017-Aug-11 06:31N 37°49' W 122°20'0 0.0
2017-Aug-11 06:01N 37°48' W 122°20'0 0.0
2017-Aug-11 05:30N 37°49' W 122°20'0 0.0
2017-Aug-11 05:00N 37°49' W 122°20'0 0.0
2017-Aug-11 04:31N 37°49' W 122°20'0 0.0
2017-Aug-11 04:01N 37°49' W 122°20'0 0.0
2017-Aug-11 03:30N 37°49' W 122°20'0 0.0
2017-Aug-11 03:00N 37°49' W 122°20'0 0.0
2017-Aug-11 02:30N 37°49' W 122°20'0 0.0
2017-Aug-11 02:01N 37°49' W 122°20'0 0.0
2017-Aug-11 01:30N 37°49' W 122°20'0 0.0
2017-Aug-11 01:01N 37°48' W 122°20'0 0.0
2017-Aug-11 00:30N 37°49' W 122°20'0 0.0
2017-Aug-11 00:01N 37°49' W 122°20'0 0.1
2017-Aug-10 23:30N 37°49' W 122°20'0 0.1
2017-Aug-10 23:00N 37°49' W 122°20'0 0.0
2017-Aug-10 22:31N 37°49' W 122°20'0 0.0
2017-Aug-10 22:00N 37°49' W 122°20'0 0.0
2017-Aug-10 21:30N 37°49' W 122°20'0 0.0
2017-Aug-10 21:01N 37°49' W 122°20'0 0.0
2017-Aug-10 20:30N 37°49' W 122°20'0 0.0
2017-Aug-10 20:00N 37°49' W 122°20'0 0.0
2017-Aug-10 19:30N 37°49' W 122°20'0 0.0
2017-Aug-10 19:00N 37°49' W 122°20'0 0.0
2017-Aug-10 18:30N 37°49' W 122°20'0 0.0
2017-Aug-10 18:00N 37°49' W 122°20'0 0.0
2017-Aug-10 17:30N 37°49' W 122°20'0 0.0
2017-Aug-10 17:00N 37°49' W 122°20'0 0.0
2017-Aug-10 16:30N 37°49' W 122°20'0 0.1
2017-Aug-10 16:01N 37°48' W 122°20'0 0.1
2017-Aug-10 15:31N 37°49' W 122°20'0 0.0
2017-Aug-10 15:01N 37°49' W 122°20'0 0.0
2017-Aug-10 14:30N 37°49' W 122°20'0 0.2
2017-Aug-10 14:00N 37°49' W 122°20'0 0.1
2017-Aug-10 13:30N 37°49' W 122°20'4 8.3
2017-Aug-10 13:00N 37°49' W 122°25'4 8.1
2017-Aug-10 12:30N 37°48' W 122°30'611.5
2017-Aug-10 12:00N 37°46' W 122°37'4 8.7
2017-Aug-10 11:30N 37°43' W 122°40'4 8.9
2017-Aug-10 11:00N 37°38' W 122°39'5 9.3
2017-Aug-10 10:31N 37°34' W 122°39'5 9.5
2017-Aug-10 10:01N 37°29' W 122°39'5 9.4
2017-Aug-10 09:30N 37°24' W 122°39'5 9.4
2017-Aug-10 09:00N 37°19' W 122°40'5 9.5
2017-Aug-10 08:30N 37°15' W 122°39'5 9.7
2017-Aug-10 08:00N 37°10' W 122°38'5 9.7
2017-Aug-10 07:31N 37°05' W 122°37'5 9.6
2017-Aug-10 07:00N 37°00' W 122°36'5 9.4
2017-Aug-10 06:29N 36°56' W 122°34'5 9.5
2017-Aug-10 06:00N 36°52' W 122°32'5 9.6
2017-Aug-10 05:29N 36°47' W 122°30'5 9.6
2017-Aug-10 05:00N 36°43' W 122°28'711.9
2017-Aug-10 04:26N 36°36' W 122°25'612.2
2017-Aug-10 03:57N 36°31' W 122°22'612.1
2017-Aug-10 03:29N 36°25' W 122°20'712.2
2017-Aug-10 02:54N 36°19' W 122°16'912.5
2017-Aug-10 02:11N 36°11' W 122°10'2312.2
2017-Aug-10 00:18N 35°52' W 121°55'2912.0
2017-Aug-09 21:53N 35°27' W 121°37'512.3
2017-Aug-09 21:30N 35°23' W 121°34'612.3
2017-Aug-09 21:00N 35°18' W 121°30'612.5
2017-Aug-09 20:30N 35°12' W 121°26'612.5
2017-Aug-09 20:00N 35°07' W 121°22'612.2
2017-Aug-09 19:30N 35°02' W 121°18'612.4
2017-Aug-09 19:00N 34°56' W 121°14'612.4
2017-Aug-09 18:30N 34°51' W 121°10'612.2
2017-Aug-09 18:00N 34°46' W 121°06'612.1
2017-Aug-09 17:30N 34°41' W 121°03'612.2
2017-Aug-09 17:00N 34°36' W 120°59'612.4
2017-Aug-09 16:30N 34°30' W 120°55'510.2
2017-Aug-09 16:00N 34°26' W 120°51'5 9.9
2017-Aug-09 15:29N 34°25' W 120°45'510.0
2017-Aug-09 15:00N 34°24' W 120°40'510.0
2017-Aug-09 14:30N 34°22' W 120°34'5 9.7
2017-Aug-09 14:00N 34°21' W 120°28'510.2
2017-Aug-09 13:30N 34°19' W 120°22'510.1
2017-Aug-09 13:01N 34°18' W 120°16'510.0
2017-Aug-09 12:30N 34°17' W 120°10'510.0
2017-Aug-09 12:00N 34°16' W 120°04'510.0
2017-Aug-09 11:30N 34°14' W 119°59'510.1
2017-Aug-09 11:00N 34°13' W 119°53'510.1
2017-Aug-09 10:30N 34°11' W 119°47'5 9.8
2017-Aug-09 10:00N 34°10' W 119°41'510.1
2017-Aug-09 09:30N 34°09' W 119°35'5 9.7
2017-Aug-09 09:00N 34°08' W 119°30'4 9.0
2017-Aug-09 08:30N 34°06' W 119°24'5 9.7
2017-Aug-09 08:00N 34°05' W 119°19'5 9.7
2017-Aug-09 07:30N 34°03' W 119°13'5 9.8
2017-Aug-09 07:00N 34°01' W 119°08'510.1
2017-Aug-09 06:30N 33°58' W 119°03'510.0
2017-Aug-09 06:00N 33°56' W 118°58'510.1
2017-Aug-09 05:30N 33°53' W 118°52'5 9.9
2017-Aug-09 05:00N 33°51' W 118°47'5 9.9
2017-Aug-09 04:30N 33°48' W 118°42'510.0
2017-Aug-09 04:00N 33°46' W 118°37'5 9.9
2017-Aug-09 03:30N 33°44' W 118°32'5 9.8
2017-Aug-09 03:00N 33°41' W 118°27'510.0
2017-Aug-09 02:30N 33°39' W 118°21'4 8.4
2017-Aug-09 02:00N 33°40' W 118°16'4 7.1
2017-Aug-09 01:30N 33°43' W 118°16'2 3.6
2017-Aug-09 01:00N 33°45' W 118°16'0 0.0
2017-Aug-09 00:30N 33°45' W 118°16'0 0.0
2017-Aug-09 00:00N 33°45' W 118°16'0 0.0
2017-Aug-08 23:30N 33°45' W 118°16'0 0.0
2017-Aug-08 23:00N 33°45' W 118°16'0 0.0
2017-Aug-08 22:30N 33°45' W 118°16'0 0.0
2017-Aug-08 21:57N 33°45' W 118°16'0 0.0
2017-Aug-08 21:30N 33°45' W 118°16'0 0.0
2017-Aug-08 20:57N 33°45' W 118°16'0 0.0
2017-Aug-08 20:30N 33°45' W 118°16'0 0.0
2017-Aug-08 20:00N 33°45' W 118°16'0 0.1
2017-Aug-08 19:30N 33°45' W 118°16'0 0.0
2017-Aug-08 19:00N 33°45' W 118°16'0 0.0
2017-Aug-08 18:30N 33°45' W 118°16'0 0.0
2017-Aug-08 17:57N 33°45' W 118°16'0 0.0
2017-Aug-08 17:30N 33°45' W 118°16'0 0.0
2017-Aug-08 17:00N 33°45' W 118°16'0 0.0
2017-Aug-08 16:30N 33°45' W 118°16'0 0.0
2017-Aug-08 16:00N 33°45' W 118°16'0 0.0
2017-Aug-08 15:30N 33°45' W 118°16'0 0.0
2017-Aug-08 15:00N 33°45' W 118°16'0 0.0
2017-Aug-08 14:30N 33°45' W 118°16'0 0.1
2017-Aug-08 13:56N 33°45' W 118°16'0 0.0
2017-Aug-08 13:26N 33°45' W 118°16'0 0.0
2017-Aug-08 12:59N 33°45' W 118°16'0 0.0
2017-Aug-08 12:29N 33°45' W 118°16'0 0.0
2017-Aug-08 11:59N 33°45' W 118°16'0 0.0
2017-Aug-08 11:26N 33°45' W 118°16'0 0.0
2017-Aug-08 10:53N 33°45' W 118°16'0 0.0
2017-Aug-08 10:26N 33°45' W 118°16'0 0.0
2017-Aug-08 09:59N 33°45' W 118°16'0 0.0
2017-Aug-08 09:29N 33°45' W 118°16'0 0.0
2017-Aug-08 08:56N 33°45' W 118°16'0 0.0
2017-Aug-08 08:26N 33°45' W 118°16'0 0.0
2017-Aug-08 07:53N 33°45' W 118°16'0 0.0
2017-Aug-08 07:29N 33°45' W 118°16'0 0.0
2017-Aug-08 06:59N 33°45' W 118°16'0 0.1
2017-Aug-08 06:29N 33°45' W 118°16'0 0.0
2017-Aug-08 05:59N 33°45' W 118°16'0 0.0
2017-Aug-08 05:29N 33°45' W 118°16'0 0.0
2017-Aug-08 04:59N 33°45' W 118°16'0 0.0
2017-Aug-08 04:29N 33°45' W 118°16'0 0.0
2017-Aug-08 04:00N 33°45' W 118°16'0 0.0
2017-Aug-08 03:30N 33°45' W 118°16'0 0.0
2017-Aug-08 03:00N 33°45' W 118°16'0 0.0
2017-Aug-08 02:29N 33°45' W 118°16'0 0.0
2017-Aug-08 01:59N 33°45' W 118°16'0 0.0
2017-Aug-08 01:29N 33°45' W 118°16'0 0.0
2017-Aug-08 00:59N 33°45' W 118°16'0 0.0
2017-Aug-08 00:29N 33°45' W 118°16'0 0.0
2017-Aug-07 23:59N 33°45' W 118°16'0 0.0
2017-Aug-07 23:26N 33°45' W 118°16'0 0.0
2017-Aug-07 22:59N 33°45' W 118°16'0 0.0
2017-Aug-07 22:17N 33°45' W 118°16'0 0.0
2017-Aug-07 21:56N 33°45' W 118°16'0 0.1
2017-Aug-07 21:29N 33°45' W 118°16'0 0.1
2017-Aug-07 20:59N 33°45' W 118°16'0 0.1
2017-Aug-07 20:29N 33°45' W 118°16'0 0.1
2017-Aug-07 19:56N 33°45' W 118°16'0 0.0
2017-Aug-07 19:29N 33°45' W 118°16'0 0.1
2017-Aug-07 18:59N 33°45' W 118°16'0 0.0
2017-Aug-07 18:29N 33°45' W 118°16'0 0.0
2017-Aug-07 17:56N 33°45' W 118°16'0 0.0
2017-Aug-07 17:26N 33°45' W 118°16'0 0.0
2017-Aug-07 16:59N 33°45' W 118°16'0 0.0
2017-Aug-07 16:26N 33°45' W 118°16'0 0.0
2017-Aug-07 15:56N 33°45' W 118°16'0 0.0
2017-Aug-07 15:29N 33°45' W 118°16'0 0.0
2017-Aug-07 14:17N 33°45' W 118°16'0 0.0
2017-Aug-07 13:53N 33°45' W 118°16'0 0.0
2017-Aug-07 13:26N 33°45' W 118°16'0 0.0
2017-Aug-07 12:59N 33°45' W 118°16'0 0.0
2017-Aug-07 12:29N 33°45' W 118°16'0 0.0
2017-Aug-07 11:59N 33°45' W 118°16'0 0.0
2017-Aug-07 11:26N 33°45' W 118°16'0 0.1
2017-Aug-07 10:59N 33°45' W 118°16'0 0.0
2017-Aug-07 10:29N 33°45' W 118°16'0 0.0
2017-Aug-07 09:50N 33°45' W 118°16'0 0.0
2017-Aug-07 09:29N 33°45' W 118°16'0 0.0
2017-Aug-07 08:59N 33°45' W 118°16'0 0.1
2017-Aug-07 08:29N 33°45' W 118°16'0 0.1
2017-Aug-07 07:59N 33°45' W 118°16'0 0.0
2017-Aug-07 07:29N 33°45' W 118°16'0 0.0
2017-Aug-07 06:59N 33°45' W 118°16'0 0.0
2017-Aug-07 06:29N 33°45' W 118°16'0 0.0
2017-Aug-07 05:59N 33°45' W 118°16'0 0.0
2017-Aug-07 05:29N 33°45' W 118°16'0 0.0
2017-Aug-07 04:59N 33°45' W 118°16'0 0.0
2017-Aug-07 04:29N 33°45' W 118°16'0 0.0
2017-Aug-07 03:56N 33°45' W 118°16'0 0.0
2017-Aug-07 03:31N 33°45' W 118°16'0 0.0
2017-Aug-07 03:01N 33°45' W 118°16'0 0.0
2017-Aug-07 02:28N 33°45' W 118°16'0 0.0
2017-Aug-07 01:58N 33°45' W 118°16'0 0.1
2017-Aug-07 01:25N 33°45' W 118°16'0 0.0
2017-Aug-07 00:55N 33°45' W 118°16'0 0.0
2017-Aug-07 00:28N 33°45' W 118°16'0 0.0
2017-Aug-06 23:58N 33°45' W 118°16'0 0.0
2017-Aug-06 23:25N 33°45' W 118°16'0 0.0
2017-Aug-06 22:55N 33°45' W 118°16'0 0.0
2017-Aug-06 22:28N 33°45' W 118°16'0 0.0
2017-Aug-06 21:58N 33°45' W 118°16'0 0.0
2017-Aug-06 21:25N 33°45' W 118°16'0 0.0
2017-Aug-06 20:58N 33°45' W 118°16'0 0.0
2017-Aug-06 20:28N 33°45' W 118°16'0 0.1
2017-Aug-06 19:58N 33°45' W 118°16'0 0.1
2017-Aug-06 19:25N 33°45' W 118°16'0 0.0
2017-Aug-06 18:55N 33°45' W 118°16'0 0.0
2017-Aug-06 18:13N 33°45' W 118°16'0 0.0
2017-Aug-06 17:58N 33°45' W 118°16'0 0.0
2017-Aug-06 17:28N 33°45' W 118°16'0 0.0
2017-Aug-06 16:58N 33°45' W 118°16'0 0.0
2017-Aug-06 16:28N 33°45' W 118°16'0 0.0
2017-Aug-06 15:55N 33°45' W 118°16'0 0.0
2017-Aug-06 15:28N 33°45' W 118°16'0 0.0
2017-Aug-06 14:55N 33°45' W 118°16'0 0.0
2017-Aug-06 14:28N 33°45' W 118°16'0 0.0
2017-Aug-06 13:56N 33°45' W 118°16'0 0.0
2017-Aug-06 13:31N 33°45' W 118°16'0 0.7
2017-Aug-06 13:00N 33°45' W 118°17'2 3.5
2017-Aug-06 12:30N 33°43' W 118°16'2 4.3
2017-Aug-06 12:00N 33°41' W 118°14'3 5.8
2017-Aug-06 11:31N 33°38' W 118°14'4 7.2
2017-Aug-06 11:01N 33°36' W 118°17'4 7.8
2017-Aug-06 10:31N 33°35' W 118°22'4 8.2
2017-Aug-06 10:00N 33°36' W 118°27'611.5
2017-Aug-06 09:30N 33°37' W 118°33'611.6
2017-Aug-06 09:00N 33°37' W 118°40'611.6
2017-Aug-06 08:30N 33°37' W 118°47'611.8
2017-Aug-06 08:00N 33°37' W 118°54'611.6
2017-Aug-06 07:30N 33°37' W 119°01'611.7
2017-Aug-06 07:00N 33°38' W 119°08'611.6
2017-Aug-06 06:30N 33°38' W 119°15'611.7
2017-Aug-06 06:00N 33°38' W 119°22'611.7
2017-Aug-06 05:30N 33°38' W 119°29'611.7
2017-Aug-06 05:01N 33°37' W 119°36'611.7
2017-Aug-06 04:30N 33°37' W 119°43'611.6
2017-Aug-06 04:00N 33°37' W 119°50'611.8
2017-Aug-06 03:30N 33°37' W 119°57'611.8
2017-Aug-06 03:00N 33°37' W 120°05'611.6
2017-Aug-06 02:30N 33°38' W 120°11'611.7
2017-Aug-06 02:00N 33°37' W 120°19'611.7
2017-Aug-06 01:30N 33°37' W 120°26'611.8
2017-Aug-06 01:00N 33°38' W 120°33'611.7
2017-Aug-06 00:30N 33°37' W 120°40'611.6
2017-Aug-06 00:00N 33°37' W 120°47'611.7
2017-Aug-05 23:30N 33°37' W 120°54'611.7
2017-Aug-05 23:01N 33°37' W 121°01'612.0
2017-Aug-05 22:30N 33°37' W 121°08'917.1
2017-Aug-05 22:00N 33°37' W 121°18'917.2
2017-Aug-05 21:30N 33°37' W 121°28'917.4
2017-Aug-05 21:00N 33°37' W 121°39'917.3
2017-Aug-05 20:30N 33°37' W 121°49'917.9
2017-Aug-05 19:59N 33°37' W 122°00'817.8
2017-Aug-05 19:31N 33°37' W 122°11'917.5
2017-Aug-05 19:00N 33°37' W 122°21'917.4
2017-Aug-05 18:30N 33°37' W 122°32'917.5
2017-Aug-05 18:00N 33°37' W 122°42'917.9
2017-Aug-05 17:30N 33°37' W 122°53'918.0
2017-Aug-05 17:00N 33°37' W 123°04'917.9
2017-Aug-05 16:30N 33°37' W 123°15'917.9
2017-Aug-05 16:00N 33°37' W 123°25'917.7
2017-Aug-05 15:30N 33°37' W 123°36'917.6
2017-Aug-05 15:01N 33°37' W 123°46'917.7
2017-Aug-05 14:30N 33°37' W 123°57'917.6
2017-Aug-05 14:00N 33°37' W 124°08'917.9
2017-Aug-05 13:30N 33°37' W 124°18'1017.6
2017-Aug-05 12:56N 33°37' W 124°31'717.3
2017-Aug-05 12:30N 33°41' W 124°38'1017.6
2017-Aug-05 11:56N 33°47' W 124°48'817.8
2017-Aug-05 11:29N 33°52' W 124°55'918.1
2017-Aug-05 10:59N 33°57' W 125°04'817.7
2017-Aug-05 10:30N 34°02' W 125°12'917.8
2017-Aug-05 10:00N 34°08' W 125°21'918.0
2017-Aug-05 09:30N 34°13' W 125°30'1018.2
2017-Aug-05 08:56N 34°19' W 125°40'918.0
2017-Aug-05 08:25N 34°25' W 125°49'1018.3
2017-Aug-05 07:51N 34°31' W 125°59'718.1
2017-Aug-05 07:27N 34°35' W 126°06'817.5
2017-Aug-05 07:00N 34°40' W 126°13'1217.5
2017-Aug-05 06:20N 34°47' W 126°25'617.4
2017-Aug-05 05:59N 34°51' W 126°31'918.1
2017-Aug-05 05:30N 34°56' W 126°40'1020.6
2017-Aug-05 05:00N 35°01' W 126°50'1520.7
2017-Aug-05 04:18N 35°10' W 127°04'620.8
2017-Aug-05 03:59N 35°14' W 127°11'1420.4
2017-Aug-05 03:19N 35°22' W 127°24'820.4
2017-Aug-05 02:55N 35°27' W 127°32'820.3
2017-Aug-05 02:30N 35°32' W 127°40'1720.7
2017-Aug-05 01:42N 35°41' W 127°57'720.8
2017-Aug-05 01:22N 35°45' W 128°04'920.8
2017-Aug-05 00:57N 35°50' W 128°13'921.0
2017-Aug-05 00:30N 35°56' W 128°22'1220.8
2017-Aug-04 23:56N 36°03' W 128°34'1021.1
2017-Aug-04 23:28N 36°08' W 128°44'1021.0
2017-Aug-04 23:00N 36°13' W 128°55'1121.0
2017-Aug-04 22:30N 36°19' W 129°05'1020.8
2017-Aug-04 22:00N 36°25' W 129°16'1020.9
2017-Aug-04 21:30N 36°31' W 129°27'2420.9
2017-Aug-04 20:20N 36°45' W 129°52'920.7
2017-Aug-04 19:53N 36°50' W 130°01'821.0
2017-Aug-04 19:30N 36°55' W 130°10'1720.8
2017-Aug-04 18:42N 37°04' W 130°27'420.4
2017-Aug-04 18:30N 37°07' W 130°31'4020.8
2017-Aug-04 16:36N 37°28' W 131°13'320.9
2017-Aug-04 16:28N 37°30' W 131°16'1020.8
2017-Aug-04 16:00N 37°35' W 131°26'1020.5
2017-Aug-04 15:30N 37°41' W 131°36'1020.9
2017-Aug-04 15:00N 37°47' W 131°47'2120.7
2017-Aug-04 14:00N 37°58' W 132°10'1020.8
2017-Aug-04 13:30N 38°03' W 132°21'1020.9
2017-Aug-04 13:00N 38°09' W 132°32'1020.7
2017-Aug-04 12:30N 38°15' W 132°43'1020.5
2017-Aug-04 12:00N 38°20' W 132°54'1020.6
2017-Aug-04 11:30N 38°26' W 133°05'1120.5
2017-Aug-04 10:58N 38°31' W 133°17'2620.8
2017-Aug-04 09:44N 38°45' W 133°45'521.1
2017-Aug-04 09:30N 38°48' W 133°50'1020.8
2017-Aug-04 09:00N 38°53' W 134°01'1120.7
2017-Aug-04 08:30N 38°59' W 134°13'1020.6
2017-Aug-04 08:00N 39°04' W 134°24'1320.8
2017-Aug-04 07:24N 39°10' W 134°38'820.7
2017-Aug-04 07:00N 39°15' W 134°47'2820.7
2017-Aug-04 05:39N 39°29' W 135°18'1521.0
2017-Aug-04 04:57N 39°37' W 135°34'920.9
2017-Aug-04 04:30N 39°41' W 135°45'1020.7
2017-Aug-04 04:00N 39°47' W 135°56'1021.1
2017-Aug-04 03:30N 39°52' W 136°08'1021.0
2017-Aug-04 03:00N 39°57' W 136°20'1121.0
2017-Aug-04 02:29N 40°03' W 136°33'5021.0
2017-Aug-04 00:07N 40°28' W 137°29'  
Track history (hours):
 
Tides and Currents Weather Stations Pressure Air Temp Water Temp Dewpoint Dewpoint Depression Visibility Wind Speed Wind Dir Waves Ship Positions

Hatsu Envoy

Last reported at 2017-Aug-12 11:37 UTC. Time now 2017-Aug-16 19:38 UTC.
Position N 38°35' W 128°42'.

Type: Ship (hazmat cat D). MMSI: 235414000.

Date/timePositionNaut miles runAvg speedWind from/ knotsBaromVisibWave heightAir tempDewpointWater temp
2017-Aug-12 11:37N 38°35' W 128°42'1113.8
2017-Aug-12 10:48N 38°29' W 128°30'513.7
2017-Aug-12 10:25N 38°26' W 128°24'613.9
2017-Aug-12 09:58N 38°22' W 128°18'1113.6
2017-Aug-12 09:11N 38°16' W 128°06'313.7
2017-Aug-12 08:59N 38°15' W 128°04'1413.4
2017-Aug-12 07:55N 38°10' W 127°46'1614.0
2017-Aug-12 06:46N 38°10' W 127°26'414.1
2017-Aug-12 06:30N 38°10' W 127°21'814.1
2017-Aug-12 05:54N 38°10' W 127°10'514.1
2017-Aug-12 05:30N 38°10' W 127°03'914.1
2017-Aug-12 04:54N 38°10' W 126°52'713.9
2017-Aug-12 04:26N 38°10' W 126°44'614.2
2017-Aug-12 04:00N 38°10' W 126°36'914.2
2017-Aug-12 03:22N 38°10' W 126°25'514.0
2017-Aug-12 03:00N 38°10' W 126°18'714.2
2017-Aug-12 02:30N 38°10' W 126°09'714.1
2017-Aug-12 02:00N 38°10' W 126°00'714.4
2017-Aug-12 01:30N 38°10' W 125°51'714.3
2017-Aug-12 01:00N 38°10' W 125°42'714.2
2017-Aug-12 00:30N 38°10' W 125°33'814.5
2017-Aug-11 23:59N 38°10' W 125°23'714.3
2017-Aug-11 23:30N 38°10' W 125°15'714.4
2017-Aug-11 23:00N 38°10' W 125°06'714.3
2017-Aug-11 22:30N 38°10' W 124°57'714.3
2017-Aug-11 22:00N 38°10' W 124°48'714.1
2017-Aug-11 21:30N 38°10' W 124°39'1013.9
2017-Aug-11 20:47N 38°10' W 124°26'413.7
2017-Aug-11 20:27N 38°10' W 124°20'613.6
2017-Aug-11 20:00N 38°10' W 124°12'1014.0
2017-Aug-11 19:19N 38°10' W 124°00'514.3
2017-Aug-11 18:58N 38°10' W 123°54'814.0
2017-Aug-11 18:24N 38°10' W 123°44'614.1
2017-Aug-11 18:00N 38°10' W 123°36'714.1
2017-Aug-11 17:30N 38°10' W 123°27'510.9
2017-Aug-11 17:00N 38°09' W 123°21'5 9.6
2017-Aug-11 16:30N 38°05' W 123°17'5 9.6
2017-Aug-11 16:00N 38°02' W 123°13'5 9.3
2017-Aug-11 15:30N 37°59' W 123°08'5 9.5
2017-Aug-11 15:00N 37°56' W 123°03'10 9.5
2017-Aug-11 14:00N 37°51' W 122°53'5 9.5
2017-Aug-11 13:30N 37°49' W 122°48'5 9.7
2017-Aug-11 13:00N 37°46' W 122°42'5 9.4
2017-Aug-11 12:30N 37°46' W 122°36'815.1
2017-Aug-11 12:00N 37°50' W 122°28'611.0
2017-Aug-11 11:30N 37°48' W 122°21'1 1.6
2017-Aug-11 11:00N 37°49' W 122°20'0 0.0
2017-Aug-11 10:29N 37°49' W 122°20'0 0.0
2017-Aug-11 09:59N 37°49' W 122°20'0 0.0
2017-Aug-11 09:29N 37°49' W 122°20'0 0.0
2017-Aug-11 09:01N 37°49' W 122°20'0 0.0
2017-Aug-11 08:31N 37°49' W 122°20'0 0.0
2017-Aug-11 08:00N 37°49' W 122°20'0 0.0
2017-Aug-11 07:31N 37°49' W 122°20'0 0.0
2017-Aug-11 07:01N 37°49' W 122°20'0 0.0
2017-Aug-11 06:31N 37°49' W 122°20'0 0.0
2017-Aug-11 06:01N 37°48' W 122°20'0 0.0
2017-Aug-11 05:30N 37°49' W 122°20'0 0.0
2017-Aug-11 05:00N 37°49' W 122°20'0 0.0
2017-Aug-11 04:31N 37°49' W 122°20'0 0.0
2017-Aug-11 04:01N 37°49' W 122°20'0 0.0
2017-Aug-11 03:30N 37°49' W 122°20'0 0.0
2017-Aug-11 03:00N 37°49' W 122°20'0 0.0
2017-Aug-11 02:30N 37°49' W 122°20'0 0.0
2017-Aug-11 02:01N 37°49' W 122°20'0 0.0
2017-Aug-11 01:30N 37°49' W 122°20'0 0.0
2017-Aug-11 01:01N 37°48' W 122°20'0 0.0
2017-Aug-11 00:30N 37°49' W 122°20'0 0.0
2017-Aug-11 00:01N 37°49' W 122°20'0 0.1
2017-Aug-10 23:30N 37°49' W 122°20'0 0.1
2017-Aug-10 23:00N 37°49' W 122°20'0 0.0
2017-Aug-10 22:31N 37°49' W 122°20'0 0.0
2017-Aug-10 22:00N 37°49' W 122°20'0 0.0
2017-Aug-10 21:30N 37°49' W 122°20'0 0.0
2017-Aug-10 21:01N 37°49' W 122°20'0 0.0
2017-Aug-10 20:30N 37°49' W 122°20'0 0.0
2017-Aug-10 20:00N 37°49' W 122°20'0 0.0
2017-Aug-10 19:30N 37°49' W 122°20'0 0.0
2017-Aug-10 19:00N 37°49' W 122°20'0 0.0
2017-Aug-10 18:30N 37°49' W 122°20'0 0.0
2017-Aug-10 18:00N 37°49' W 122°20'0 0.0
2017-Aug-10 17:30N 37°49' W 122°20'0 0.0
2017-Aug-10 17:00N 37°49' W 122°20'0 0.0
2017-Aug-10 16:30N 37°49' W 122°20'0 0.1
2017-Aug-10 16:01N 37°48' W 122°20'0 0.1
2017-Aug-10 15:31N 37°49' W 122°20'0 0.0
2017-Aug-10 15:01N 37°49' W 122°20'0 0.0
2017-Aug-10 14:30N 37°49' W 122°20'0 0.2
2017-Aug-10 14:00N 37°49' W 122°20'0 0.1
2017-Aug-10 13:30N 37°49' W 122°20'4 8.3
2017-Aug-10 13:00N 37°49' W 122°25'4 8.1
2017-Aug-10 12:30N 37°48' W 122°30'611.5
2017-Aug-10 12:00N 37°46' W 122°37'4 8.7
2017-Aug-10 11:30N 37°43' W 122°40'4 8.9
2017-Aug-10 11:00N 37°38' W 122°39'5 9.3
2017-Aug-10 10:31N 37°34' W 122°39'5 9.5
2017-Aug-10 10:01N 37°29' W 122°39'5 9.4
2017-Aug-10 09:30N 37°24' W 122°39'5 9.4
2017-Aug-10 09:00N 37°19' W 122°40'5 9.5
2017-Aug-10 08:30N 37°15' W 122°39'5 9.7
2017-Aug-10 08:00N 37°10' W 122°38'5 9.7
2017-Aug-10 07:31N 37°05' W 122°37'5 9.6
2017-Aug-10 07:00N 37°00' W 122°36'5 9.4
2017-Aug-10 06:29N 36°56' W 122°34'5 9.5
2017-Aug-10 06:00N 36°52' W 122°32'5 9.6
2017-Aug-10 05:29N 36°47' W 122°30'5 9.6
2017-Aug-10 05:00N 36°43' W 122°28'711.9
2017-Aug-10 04:26N 36°36' W 122°25'612.2
2017-Aug-10 03:57N 36°31' W 122°22'612.1
2017-Aug-10 03:29N 36°25' W 122°20'712.2
2017-Aug-10 02:54N 36°19' W 122°16'912.5
2017-Aug-10 02:11N 36°11' W 122°10'2312.2
2017-Aug-10 00:18N 35°52' W 121°55'2912.0
2017-Aug-09 21:53N 35°27' W 121°37'512.3
2017-Aug-09 21:30N 35°23' W 121°34'612.3
2017-Aug-09 21:00N 35°18' W 121°30'612.5
2017-Aug-09 20:30N 35°12' W 121°26'612.5
2017-Aug-09 20:00N 35°07' W 121°22'612.2
2017-Aug-09 19:30N 35°02' W 121°18'612.4
2017-Aug-09 19:00N 34°56' W 121°14'612.4
2017-Aug-09 18:30N 34°51' W 121°10'612.2
2017-Aug-09 18:00N 34°46' W 121°06'612.1
2017-Aug-09 17:30N 34°41' W 121°03'612.2
2017-Aug-09 17:00N 34°36' W 120°59'612.4
2017-Aug-09 16:30N 34°30' W 120°55'510.2
2017-Aug-09 16:00N 34°26' W 120°51'5 9.9
2017-Aug-09 15:29N 34°25' W 120°45'510.0
2017-Aug-09 15:00N 34°24' W 120°40'510.0
2017-Aug-09 14:30N 34°22' W 120°34'5 9.7
2017-Aug-09 14:00N 34°21' W 120°28'510.2
2017-Aug-09 13:30N 34°19' W 120°22'510.1
2017-Aug-09 13:01N 34°18' W 120°16'510.0
2017-Aug-09 12:30N 34°17' W 120°10'510.0
2017-Aug-09 12:00N 34°16' W 120°04'510.0
2017-Aug-09 11:30N 34°14' W 119°59'510.1
2017-Aug-09 11:00N 34°13' W 119°53'510.1
2017-Aug-09 10:30N 34°11' W 119°47'5 9.8
2017-Aug-09 10:00N 34°10' W 119°41'510.1
2017-Aug-09 09:30N 34°09' W 119°35'5 9.7
2017-Aug-09 09:00N 34°08' W 119°30'4 9.0
2017-Aug-09 08:30N 34°06' W 119°24'5 9.7
2017-Aug-09 08:00N 34°05' W 119°19'5 9.7
2017-Aug-09 07:30N 34°03' W 119°13'5 9.8
2017-Aug-09 07:00N 34°01' W 119°08'510.1
2017-Aug-09 06:30N 33°58' W 119°03'510.0
2017-Aug-09 06:00N 33°56' W 118°58'510.1
2017-Aug-09 05:30N 33°53' W 118°52'5 9.9
2017-Aug-09 05:00N 33°51' W 118°47'5 9.9
2017-Aug-09 04:30N 33°48' W 118°42'510.0
2017-Aug-09 04:00N 33°46' W 118°37'5 9.9
2017-Aug-09 03:30N 33°44' W 118°32'5 9.8
2017-Aug-09 03:00N 33°41' W 118°27'510.0
2017-Aug-09 02:30N 33°39' W 118°21'4 8.4
2017-Aug-09 02:00N 33°40' W 118°16'4 7.1
2017-Aug-09 01:30N 33°43' W 118°16'2 3.6
2017-Aug-09 01:00N 33°45' W 118°16'0 0.0
2017-Aug-09 00:30N 33°45' W 118°16'0 0.0
2017-Aug-09 00:00N 33°45' W 118°16'0 0.0
2017-Aug-08 23:30N 33°45' W 118°16'0 0.0
2017-Aug-08 23:00N 33°45' W 118°16'0 0.0
2017-Aug-08 22:30N 33°45' W 118°16'0 0.0
2017-Aug-08 21:57N 33°45' W 118°16'0 0.0
2017-Aug-08 21:30N 33°45' W 118°16'0 0.0
2017-Aug-08 20:57N 33°45' W 118°16'0 0.0
2017-Aug-08 20:30N 33°45' W 118°16'0 0.0
2017-Aug-08 20:00N 33°45' W 118°16'0 0.1
2017-Aug-08 19:30N 33°45' W 118°16'0 0.0
2017-Aug-08 19:00N 33°45' W 118°16'0 0.0
2017-Aug-08 18:30N 33°45' W 118°16'0 0.0
2017-Aug-08 17:57N 33°45' W 118°16'0 0.0
2017-Aug-08 17:30N 33°45' W 118°16'0 0.0
2017-Aug-08 17:00N 33°45' W 118°16'0 0.0
2017-Aug-08 16:30N 33°45' W 118°16'0 0.0
2017-Aug-08 16:00N 33°45' W 118°16'0 0.0
2017-Aug-08 15:30N 33°45' W 118°16'0 0.0
2017-Aug-08 15:00N 33°45' W 118°16'0 0.0
2017-Aug-08 14:30N 33°45' W 118°16'0 0.1
2017-Aug-08 13:56N 33°45' W 118°16'0 0.0
2017-Aug-08 13:26N 33°45' W 118°16'0 0.0
2017-Aug-08 12:59N 33°45' W 118°16'0 0.0
2017-Aug-08 12:29N 33°45' W 118°16'0 0.0
2017-Aug-08 11:59N 33°45' W 118°16'0 0.0
2017-Aug-08 11:26N 33°45' W 118°16'0 0.0
2017-Aug-08 10:53N 33°45' W 118°16'0 0.0
2017-Aug-08 10:26N 33°45' W 118°16'0 0.0
2017-Aug-08 09:59N 33°45' W 118°16'0 0.0
2017-Aug-08 09:29N 33°45' W 118°16'0 0.0
2017-Aug-08 08:56N 33°45' W 118°16'0 0.0
2017-Aug-08 08:26N 33°45' W 118°16'0 0.0
2017-Aug-08 07:53N 33°45' W 118°16'0 0.0
2017-Aug-08 07:29N 33°45' W 118°16'0 0.0
2017-Aug-08 06:59N 33°45' W 118°16'0 0.1
2017-Aug-08 06:29N 33°45' W 118°16'0 0.0
2017-Aug-08 05:59N 33°45' W 118°16'0 0.0
2017-Aug-08 05:29N 33°45' W 118°16'0 0.0
2017-Aug-08 04:59N 33°45' W 118°16'0 0.0
2017-Aug-08 04:29N 33°45' W 118°16'0 0.0
2017-Aug-08 04:00N 33°45' W 118°16'0 0.0
2017-Aug-08 03:30N 33°45' W 118°16'0 0.0
2017-Aug-08 03:00N 33°45' W 118°16'0 0.0
2017-Aug-08 02:29N 33°45' W 118°16'0 0.0
2017-Aug-08 01:59N 33°45' W 118°16'0 0.0
2017-Aug-08 01:29N 33°45' W 118°16'0 0.0
2017-Aug-08 00:59N 33°45' W 118°16'0 0.0
2017-Aug-08 00:29N 33°45' W 118°16'0 0.0
2017-Aug-07 23:59N 33°45' W 118°16'0 0.0
2017-Aug-07 23:26N 33°45' W 118°16'0 0.0
2017-Aug-07 22:59N 33°45' W 118°16'0 0.0
2017-Aug-07 22:17N 33°45' W 118°16'0 0.0
2017-Aug-07 21:56N 33°45' W 118°16'0 0.1
2017-Aug-07 21:29N 33°45' W 118°16'0 0.1
2017-Aug-07 20:59N 33°45' W 118°16'0 0.1
2017-Aug-07 20:29N 33°45' W 118°16'0 0.1
2017-Aug-07 19:56N 33°45' W 118°16'0 0.0
2017-Aug-07 19:29N 33°45' W 118°16'0 0.1
2017-Aug-07 18:59N 33°45' W 118°16'0 0.0
2017-Aug-07 18:29N 33°45' W 118°16'0 0.0
2017-Aug-07 17:56N 33°45' W 118°16'0 0.0
2017-Aug-07 17:26N 33°45' W 118°16'0 0.0
2017-Aug-07 16:59N 33°45' W 118°16'0 0.0
2017-Aug-07 16:26N 33°45' W 118°16'0 0.0
2017-Aug-07 15:56N 33°45' W 118°16'0 0.0
2017-Aug-07 15:29N 33°45' W 118°16'0 0.0
2017-Aug-07 14:17N 33°45' W 118°16'0 0.0
2017-Aug-07 13:53N 33°45' W 118°16'0 0.0
2017-Aug-07 13:26N 33°45' W 118°16'0 0.0
2017-Aug-07 12:59N 33°45' W 118°16'0 0.0
2017-Aug-07 12:29N 33°45' W 118°16'0 0.0
2017-Aug-07 11:59N 33°45' W 118°16'0 0.0
2017-Aug-07 11:26N 33°45' W 118°16'0 0.1
2017-Aug-07 10:59N 33°45' W 118°16'0 0.0
2017-Aug-07 10:29N 33°45' W 118°16'0 0.0
2017-Aug-07 09:50N 33°45' W 118°16'0 0.0
2017-Aug-07 09:29N 33°45' W 118°16'0 0.0
2017-Aug-07 08:59N 33°45' W 118°16'0 0.1
2017-Aug-07 08:29N 33°45' W 118°16'0 0.1
2017-Aug-07 07:59N 33°45' W 118°16'0 0.0
2017-Aug-07 07:29N 33°45' W 118°16'0 0.0
2017-Aug-07 06:59N 33°45' W 118°16'0 0.0
2017-Aug-07 06:29N 33°45' W 118°16'0 0.0
2017-Aug-07 05:59N 33°45' W 118°16'0 0.0
2017-Aug-07 05:29N 33°45' W 118°16'0 0.0
2017-Aug-07 04:59N 33°45' W 118°16'0 0.0
2017-Aug-07 04:29N 33°45' W 118°16'0 0.0
2017-Aug-07 03:56N 33°45' W 118°16'0 0.0
2017-Aug-07 03:31N 33°45' W 118°16'0 0.0
2017-Aug-07 03:01N 33°45' W 118°16'0 0.0
2017-Aug-07 02:28N 33°45' W 118°16'0 0.0
2017-Aug-07 01:58N 33°45' W 118°16'0 0.1
2017-Aug-07 01:25N 33°45' W 118°16'0 0.0
2017-Aug-07 00:55N 33°45' W 118°16'0 0.0
2017-Aug-07 00:28N 33°45' W 118°16'0 0.0
2017-Aug-06 23:58N 33°45' W 118°16'0 0.0
2017-Aug-06 23:25N 33°45' W 118°16'0 0.0
2017-Aug-06 22:55N 33°45' W 118°16'0 0.0
2017-Aug-06 22:28N 33°45' W 118°16'0 0.0
2017-Aug-06 21:58N 33°45' W 118°16'0 0.0
2017-Aug-06 21:25N 33°45' W 118°16'0 0.0
2017-Aug-06 20:58N 33°45' W 118°16'0 0.0
2017-Aug-06 20:28N 33°45' W 118°16'0 0.1
2017-Aug-06 19:58N 33°45' W 118°16'0 0.1
2017-Aug-06 19:25N 33°45' W 118°16'0 0.0
2017-Aug-06 18:55N 33°45' W 118°16'0 0.0
2017-Aug-06 18:13N 33°45' W 118°16'0 0.0
2017-Aug-06 17:58N 33°45' W 118°16'0 0.0
2017-Aug-06 17:28N 33°45' W 118°16'0 0.0
2017-Aug-06 16:58N 33°45' W 118°16'0 0.0
2017-Aug-06 16:28N 33°45' W 118°16'0 0.0
2017-Aug-06 15:55N 33°45' W 118°16'0 0.0
2017-Aug-06 15:28N 33°45' W 118°16'0 0.0
2017-Aug-06 14:55N 33°45' W 118°16'0 0.0
2017-Aug-06 14:28N 33°45' W 118°16'0 0.0
2017-Aug-06 13:56N 33°45' W 118°16'0 0.0
2017-Aug-06 13:31N 33°45' W 118°16'0 0.7
2017-Aug-06 13:00N 33°45' W 118°17'2 3.5
2017-Aug-06 12:30N 33°43' W 118°16'2 4.3
2017-Aug-06 12:00N 33°41' W 118°14'3 5.8
2017-Aug-06 11:31N 33°38' W 118°14'4 7.2
2017-Aug-06 11:01N 33°36' W 118°17'4 7.8
2017-Aug-06 10:31N 33°35' W 118°22'4 8.2
2017-Aug-06 10:00N 33°36' W 118°27'611.5
2017-Aug-06 09:30N 33°37' W 118°33'611.6
2017-Aug-06 09:00N 33°37' W 118°40'611.6
2017-Aug-06 08:30N 33°37' W 118°47'611.8
2017-Aug-06 08:00N 33°37' W 118°54'611.6
2017-Aug-06 07:30N 33°37' W 119°01'611.7
2017-Aug-06 07:00N 33°38' W 119°08'611.6
2017-Aug-06 06:30N 33°38' W 119°15'611.7
2017-Aug-06 06:00N 33°38' W 119°22'611.7
2017-Aug-06 05:30N 33°38' W 119°29'611.7
2017-Aug-06 05:01N 33°37' W 119°36'611.7
2017-Aug-06 04:30N 33°37' W 119°43'611.6
2017-Aug-06 04:00N 33°37' W 119°50'611.8
2017-Aug-06 03:30N 33°37' W 119°57'611.8
2017-Aug-06 03:00N 33°37' W 120°05'611.6
2017-Aug-06 02:30N 33°38' W 120°11'611.7
2017-Aug-06 02:00N 33°37' W 120°19'611.7
2017-Aug-06 01:30N 33°37' W 120°26'611.8
2017-Aug-06 01:00N 33°38' W 120°33'611.7
2017-Aug-06 00:30N 33°37' W 120°40'611.6
2017-Aug-06 00:00N 33°37' W 120°47'611.7
2017-Aug-05 23:30N 33°37' W 120°54'611.7
2017-Aug-05 23:01N 33°37' W 121°01'612.0
2017-Aug-05 22:30N 33°37' W 121°08'917.1
2017-Aug-05 22:00N 33°37' W 121°18'917.2
2017-Aug-05 21:30N 33°37' W 121°28'917.4
2017-Aug-05 21:00N 33°37' W 121°39'917.3
2017-Aug-05 20:30N 33°37' W 121°49'917.9
2017-Aug-05 19:59N 33°37' W 122°00'817.8
2017-Aug-05 19:31N 33°37' W 122°11'917.5
2017-Aug-05 19:00N 33°37' W 122°21'917.4
2017-Aug-05 18:30N 33°37' W 122°32'917.5
2017-Aug-05 18:00N 33°37' W 122°42'917.9
2017-Aug-05 17:30N 33°37' W 122°53'918.0
2017-Aug-05 17:00N 33°37' W 123°04'917.9
2017-Aug-05 16:30N 33°37' W 123°15'917.9
2017-Aug-05 16:00N 33°37' W 123°25'917.7
2017-Aug-05 15:30N 33°37' W 123°36'917.6
2017-Aug-05 15:01N 33°37' W 123°46'917.7
2017-Aug-05 14:30N 33°37' W 123°57'917.6
2017-Aug-05 14:00N 33°37' W 124°08'917.9
2017-Aug-05 13:30N 33°37' W 124°18'1017.6
2017-Aug-05 12:56N 33°37' W 124°31'717.3
2017-Aug-05 12:30N 33°41' W 124°38'1017.6
2017-Aug-05 11:56N 33°47' W 124°48'817.8
2017-Aug-05 11:29N 33°52' W 124°55'918.1
2017-Aug-05 10:59N 33°57' W 125°04'817.7
2017-Aug-05 10:30N 34°02' W 125°12'917.8
2017-Aug-05 10:00N 34°08' W 125°21'918.0
2017-Aug-05 09:30N 34°13' W 125°30'1018.2
2017-Aug-05 08:56N 34°19' W 125°40'918.0
2017-Aug-05 08:25N 34°25' W 125°49'1018.3
2017-Aug-05 07:51N 34°31' W 125°59'718.1
2017-Aug-05 07:27N 34°35' W 126°06'817.5
2017-Aug-05 07:00N 34°40' W 126°13'1217.5
2017-Aug-05 06:20N 34°47' W 126°25'617.4
2017-Aug-05 05:59N 34°51' W 126°31'918.1
2017-Aug-05 05:30N 34°56' W 126°40'1020.6
2017-Aug-05 05:00N 35°01' W 126°50'1520.7
2017-Aug-05 04:18N 35°10' W 127°04'620.8
2017-Aug-05 03:59N 35°14' W 127°11'1420.4
2017-Aug-05 03:19N 35°22' W 127°24'820.4
2017-Aug-05 02:55N 35°27' W 127°32'820.3
2017-Aug-05 02:30N 35°32' W 127°40'1720.7
2017-Aug-05 01:42N 35°41' W 127°57'720.8
2017-Aug-05 01:22N 35°45' W 128°04'920.8
2017-Aug-05 00:57N 35°50' W 128°13'921.0
2017-Aug-05 00:30N 35°56' W 128°22'1220.8
2017-Aug-04 23:56N 36°03' W 128°34'1021.1
2017-Aug-04 23:28N 36°08' W 128°44'1021.0
2017-Aug-04 23:00N 36°13' W 128°55'1121.0
2017-Aug-04 22:30N 36°19' W 129°05'1020.8
2017-Aug-04 22:00N 36°25' W 129°16'1020.9
2017-Aug-04 21:30N 36°31' W 129°27'2420.9
2017-Aug-04 20:20N 36°45' W 129°52'920.7
2017-Aug-04 19:53N 36°50' W 130°01'821.0
2017-Aug-04 19:30N 36°55' W 130°10'1720.8
2017-Aug-04 18:42N 37°04' W 130°27'420.4
2017-Aug-04 18:30N 37°07' W 130°31'4020.8
2017-Aug-04 16:36N 37°28' W 131°13'320.9
2017-Aug-04 16:28N 37°30' W 131°16'1020.8
2017-Aug-04 16:00N 37°35' W 131°26'1020.5
2017-Aug-04 15:30N 37°41' W 131°36'1020.9
2017-Aug-04 15:00N 37°47' W 131°47'2120.7
2017-Aug-04 14:00N 37°58' W 132°10'1020.8
2017-Aug-04 13:30N 38°03' W 132°21'1020.9
2017-Aug-04 13:00N 38°09' W 132°32'1020.7
2017-Aug-04 12:30N 38°15' W 132°43'1020.5
2017-Aug-04 12:00N 38°20' W 132°54'1020.6
2017-Aug-04 11:30N 38°26' W 133°05'1120.5
2017-Aug-04 10:58N 38°31' W 133°17'2620.8
2017-Aug-04 09:44N 38°45' W 133°45'521.1
2017-Aug-04 09:30N 38°48' W 133°50'1020.8
2017-Aug-04 09:00N 38°53' W 134°01'1120.7
2017-Aug-04 08:30N 38°59' W 134°13'1020.6
2017-Aug-04 08:00N 39°04' W 134°24'1320.8
2017-Aug-04 07:24N 39°10' W 134°38'820.7
2017-Aug-04 07:00N 39°15' W 134°47'2820.7
2017-Aug-04 05:39N 39°29' W 135°18'1521.0
2017-Aug-04 04:57N 39°37' W 135°34'920.9
2017-Aug-04 04:30N 39°41' W 135°45'1020.7
2017-Aug-04 04:00N 39°47' W 135°56'1021.1
2017-Aug-04 03:30N 39°52' W 136°08'1021.0
2017-Aug-04 03:00N 39°57' W 136°20'1121.0
2017-Aug-04 02:29N 40°03' W 136°33'5021.0
2017-Aug-04 00:07N 40°28' W 137°29'  

Dump ship's entire track history